createdAt,value
2022-10-18T00:00:09.118Z,22.6
2022-10-18T00:01:11.069Z,22.6
2022-10-18T00:02:12.958Z,22.7
2022-10-18T00:03:14.918Z,22.7
2022-10-18T00:04:16.505Z,22.7
2022-10-18T00:05:18.467Z,22.7
2022-10-18T00:06:20.019Z,22.7
2022-10-18T00:07:21.656Z,22.7
2022-10-18T00:08:23.372Z,22.7
2022-10-18T00:09:24.965Z,22.7
2022-10-18T00:10:26.569Z,22.7
2022-10-18T00:11:28.237Z,22.7
2022-10-18T00:12:29.847Z,22.6
2022-10-18T00:13:31.604Z,22.7
2022-10-18T00:14:33.343Z,22.6
2022-10-18T00:15:35.094Z,22.6
2022-10-18T00:16:36.871Z,22.7
2022-10-18T00:17:38.441Z,22.6
2022-10-18T00:18:40.263Z,22.7
2022-10-18T00:19:41.900Z,22.6
2022-10-18T00:20:43.759Z,22.7
2022-10-18T00:22:47.209Z,22.6
2022-10-18T00:23:48.925Z,22.6
2022-10-18T00:24:50.590Z,22.7
2022-10-18T00:25:52.294Z,22.7
2022-10-18T00:26:54.144Z,22.7
2022-10-18T00:27:55.756Z,22.7
2022-10-18T00:28:57.706Z,22.7
2022-10-18T00:29:59.562Z,22.7
2022-10-18T00:31:01.339Z,22.7
2022-10-18T00:32:03.101Z,22.6
2022-10-18T00:33:04.696Z,22.6
2022-10-18T00:34:06.340Z,22.7
2022-10-18T00:35:08.049Z,22.7
2022-10-18T00:36:09.975Z,22.7
2022-10-18T00:37:11.623Z,22.7
2022-10-18T00:38:13.268Z,22.7
2022-10-18T00:39:14.822Z,22.6
2022-10-18T00:40:16.384Z,22.7
2022-10-18T00:41:18.168Z,22.7
2022-10-18T00:42:19.729Z,22.7
2022-10-18T00:43:21.593Z,22.7
2022-10-18T00:44:23.412Z,22.7
2022-10-18T00:45:25.190Z,22.7
2022-10-18T00:46:26.878Z,22.7
2022-10-18T00:47:28.650Z,22.7
2022-10-18T00:48:30.431Z,22.7
2022-10-18T00:49:32.289Z,22.7
2022-10-18T00:50:34.058Z,22.7
2022-10-18T00:51:35.884Z,22.7
2022-10-18T00:52:37.549Z,22.7
2022-10-18T00:53:39.118Z,22.7
2022-10-18T00:54:41.124Z,22.7
2022-10-18T00:55:42.682Z,22.8
2022-10-18T00:56:44.313Z,22.7
2022-10-18T00:57:45.993Z,22.7
2022-10-18T00:58:47.771Z,22.7
2022-10-18T00:59:49.554Z,22.7
2022-10-18T01:00:51.168Z,22.7
2022-10-18T01:01:53.092Z,22.7
2022-10-18T01:02:55.207Z,22.7
2022-10-18T01:03:56.821Z,22.8
2022-10-18T01:04:58.615Z,22.8
2022-10-18T01:06:00.374Z,22.7
2022-10-18T01:07:02.204Z,22.7
2022-10-18T01:08:03.962Z,22.8
2022-10-18T01:09:05.771Z,22.7
2022-10-18T01:10:07.652Z,22.7
2022-10-18T01:11:09.359Z,22.7
2022-10-18T01:12:11.038Z,22.7
2022-10-18T01:13:12.629Z,22.7
2022-10-18T01:14:14.192Z,22.7
2022-10-18T01:15:15.986Z,22.7
2022-10-18T01:16:17.721Z,22.7
2022-10-18T01:17:19.479Z,22.8
2022-10-18T01:18:21.145Z,22.7
2022-10-18T01:19:23.141Z,22.7
2022-10-18T01:20:24.797Z,22.7
2022-10-18T01:21:26.489Z,22.7
2022-10-18T01:22:28.311Z,22.7
2022-10-18T01:23:30.024Z,22.8
2022-10-18T01:24:31.776Z,22.8
2022-10-18T01:25:33.657Z,22.8
2022-10-18T01:26:35.278Z,22.8
2022-10-18T01:27:37.170Z,22.8
2022-10-18T01:28:39.017Z,22.8
2022-10-18T01:29:40.937Z,22.8
2022-10-18T01:30:42.599Z,22.8
2022-10-18T01:31:44.242Z,22.8
2022-10-18T01:32:45.796Z,22.8
2022-10-18T01:33:47.361Z,22.8
2022-10-18T01:34:48.943Z,22.7
2022-10-18T01:35:50.727Z,22.8
2022-10-18T01:36:52.500Z,22.7
2022-10-18T01:37:54.318Z,22.8
2022-10-18T01:38:55.871Z,22.8
2022-10-18T01:39:57.427Z,22.8
2022-10-18T01:40:59.221Z,22.8
2022-10-18T01:42:01.106Z,22.8
2022-10-18T01:43:03.121Z,22.8
2022-10-18T01:44:05.163Z,22.8
2022-10-18T01:45:06.730Z,22.9
2022-10-18T01:46:08.607Z,22.8
2022-10-18T01:47:10.218Z,22.8
2022-10-18T01:48:11.897Z,22.8
2022-10-18T01:49:13.614Z,22.8
2022-10-18T01:50:15.451Z,22.8
2022-10-18T01:51:17.066Z,22.8
2022-10-18T01:52:18.712Z,22.8
2022-10-18T01:53:20.639Z,22.8
2022-10-18T01:54:22.387Z,22.8
2022-10-18T01:55:24.101Z,22.8
2022-10-18T01:56:25.763Z,22.8
2022-10-18T01:57:27.422Z,22.8
2022-10-18T01:58:29.036Z,22.8
2022-10-18T01:59:30.783Z,22.8
2022-10-18T02:00:32.561Z,22.8
2022-10-18T02:01:34.416Z,22.8
2022-10-18T02:02:36.126Z,22.8
2022-10-18T02:03:38.021Z,22.9
2022-10-18T02:04:39.623Z,22.9
2022-10-18T02:05:41.232Z,22.8
2022-10-18T02:06:42.873Z,22.8
2022-10-18T02:07:59.897Z,22.8
2022-10-18T02:09:24.956Z,22.8
2022-10-18T02:10:26.765Z,22.8
2022-10-18T02:11:28.546Z,22.8
2022-10-18T02:12:30.945Z,22.8
2022-10-18T02:13:33.887Z,22.8
2022-10-18T02:14:35.445Z,22.8
2022-10-18T02:15:37.039Z,22.8
2022-10-18T02:16:38.787Z,22.9
2022-10-18T02:17:40.573Z,22.8
2022-10-18T02:18:42.316Z,22.8
2022-10-18T02:19:44.209Z,22.8
2022-10-18T02:20:45.912Z,22.8
2022-10-18T02:21:47.563Z,22.8
2022-10-18T02:22:49.188Z,22.8
2022-10-18T02:23:50.975Z,22.8
2022-10-18T02:24:52.800Z,22.8
2022-10-18T02:25:54.475Z,22.9
2022-10-18T02:26:56.027Z,22.9
2022-10-18T02:27:57.596Z,22.8
2022-10-18T02:28:59.275Z,22.9
2022-10-18T02:30:00.883Z,22.9
2022-10-18T02:31:02.536Z,22.9
2022-10-18T02:32:04.295Z,22.9
2022-10-18T02:33:06.063Z,22.9
2022-10-18T02:34:07.707Z,22.9
2022-10-18T02:35:09.318Z,22.8
2022-10-18T02:36:10.996Z,22.9
2022-10-18T02:37:12.724Z,22.9
2022-10-18T02:38:14.696Z,22.8
2022-10-18T02:39:16.366Z,22.9
2022-10-18T02:40:18.190Z,22.9
2022-10-18T02:41:19.770Z,22.9
2022-10-18T02:42:21.364Z,22.9
2022-10-18T02:43:23.128Z,22.9
2022-10-18T02:44:24.699Z,22.9
2022-10-18T02:45:26.488Z,22.9
2022-10-18T02:46:28.269Z,22.9
2022-10-18T02:47:30.854Z,22.9
2022-10-18T02:48:33.649Z,22.8
2022-10-18T02:49:35.368Z,22.9
2022-10-18T02:50:36.965Z,22.9
2022-10-18T02:51:38.747Z,22.9
2022-10-18T02:52:42.948Z,22.9
2022-10-18T02:53:44.605Z,22.9
2022-10-18T02:54:46.350Z,22.9
2022-10-18T02:55:48.200Z,22.9
2022-10-18T02:56:49.808Z,22.9
2022-10-18T02:57:51.363Z,22.9
2022-10-18T02:58:53.036Z,23
2022-10-18T02:59:54.778Z,22.9
2022-10-18T03:00:56.329Z,22.9
2022-10-18T03:01:58.167Z,22.9
2022-10-18T03:02:59.815Z,22.9
2022-10-18T03:04:01.566Z,23
2022-10-18T03:05:03.266Z,23
2022-10-18T03:06:04.923Z,23
2022-10-18T03:07:06.703Z,23
2022-10-18T03:08:08.367Z,23
2022-10-18T03:09:10.305Z,22.9
2022-10-18T03:10:11.872Z,22.9
2022-10-18T03:11:13.694Z,22.9
2022-10-18T03:12:15.355Z,23
2022-10-18T03:13:17.134Z,23
2022-10-18T03:14:19.137Z,22.9
2022-10-18T03:15:20.861Z,22.9
2022-10-18T03:16:22.713Z,23
2022-10-18T03:17:24.597Z,23
2022-10-18T03:18:26.157Z,22.9
2022-10-18T03:19:27.981Z,22.9
2022-10-18T03:20:29.596Z,23
2022-10-18T03:21:31.286Z,23
2022-10-18T03:22:32.919Z,22.9
2022-10-18T03:23:34.636Z,22.9
2022-10-18T03:24:36.618Z,23
2022-10-18T03:25:42.925Z,23
2022-10-18T03:26:48.200Z,22.9
2022-10-18T03:27:49.814Z,23
2022-10-18T03:28:51.750Z,22.9
2022-10-18T03:29:53.852Z,22.9
2022-10-18T03:30:55.500Z,22.9
2022-10-18T03:31:57.246Z,23
2022-10-18T03:32:58.891Z,23
2022-10-18T03:34:00.537Z,23
2022-10-18T03:35:02.263Z,22.9
2022-10-18T03:36:04.237Z,23
2022-10-18T03:37:05.892Z,22.6
2022-10-18T03:38:07.629Z,22.4
2022-10-18T03:39:09.283Z,22.9
2022-10-18T03:40:10.938Z,22.9
2022-10-18T03:41:12.793Z,22.9
2022-10-18T03:42:14.722Z,23
2022-10-18T03:43:16.299Z,23
2022-10-18T03:44:17.979Z,23
2022-10-18T03:45:19.625Z,23
2022-10-18T03:46:21.405Z,23.1
2022-10-18T03:47:22.971Z,23.1
2022-10-18T03:48:24.563Z,23.1
2022-10-18T03:49:26.388Z,23
2022-10-18T03:50:28.497Z,22.9
2022-10-18T03:51:30.247Z,23
2022-10-18T03:52:32.511Z,23.1
2022-10-18T03:53:35.474Z,23
2022-10-18T03:54:37.176Z,23
2022-10-18T03:55:38.921Z,23
2022-10-18T03:56:40.674Z,23
2022-10-18T03:57:42.471Z,23
2022-10-18T03:58:44.121Z,22.9
2022-10-18T03:59:45.873Z,23
2022-10-18T04:00:47.588Z,23
2022-10-18T04:01:49.419Z,23
2022-10-18T04:02:56.123Z,23.1
2022-10-18T04:03:58.181Z,23.1
2022-10-18T04:04:59.797Z,23.1
2022-10-18T04:06:01.360Z,23.1
2022-10-18T04:07:02.927Z,23.1
2022-10-18T04:08:04.672Z,23
2022-10-18T04:09:10.422Z,23
2022-10-18T04:10:12.257Z,23.1
2022-10-18T04:11:13.913Z,23.1
2022-10-18T04:12:15.755Z,23
2022-10-18T04:13:17.598Z,23.1
2022-10-18T04:14:19.342Z,23.1
2022-10-18T04:15:23.756Z,23
2022-10-18T04:16:25.518Z,22.9
2022-10-18T04:17:27.455Z,23
2022-10-18T04:18:29.046Z,23
2022-10-18T04:19:30.608Z,22.9
2022-10-18T04:20:32.357Z,22.8
2022-10-18T04:21:34.106Z,22.9
2022-10-18T04:22:35.985Z,23
2022-10-18T04:23:39.185Z,23
2022-10-18T04:24:40.884Z,23
2022-10-18T04:26:45.231Z,23.1
2022-10-18T04:27:47.107Z,23.2
2022-10-18T04:28:49.052Z,23.2
2022-10-18T04:29:50.987Z,23.2
2022-10-18T04:30:52.837Z,23.1
2022-10-18T04:31:54.525Z,23
2022-10-18T04:32:56.139Z,23
2022-10-18T04:33:57.699Z,23.1
2022-10-18T04:34:59.370Z,23
2022-10-18T04:36:01.165Z,23
2022-10-18T04:37:02.933Z,23
2022-10-18T04:38:04.626Z,22.9
2022-10-18T04:39:06.181Z,23
2022-10-18T04:40:07.849Z,23
2022-10-18T04:41:09.595Z,23
2022-10-18T04:42:11.204Z,23
2022-10-18T04:43:12.961Z,23
2022-10-18T04:44:14.777Z,23
2022-10-18T04:45:16.631Z,23
2022-10-18T04:46:18.333Z,23
2022-10-18T04:47:19.944Z,22.9
2022-10-18T04:48:21.622Z,23
2022-10-18T04:49:23.168Z,23
2022-10-18T04:50:24.761Z,23
2022-10-18T04:51:26.474Z,23
2022-10-18T04:52:28.309Z,23
2022-10-18T04:53:30.111Z,23
2022-10-18T04:54:31.758Z,23
2022-10-18T04:55:33.413Z,23
2022-10-18T04:56:35.299Z,23
2022-10-18T04:57:36.914Z,23
2022-10-18T04:58:38.604Z,23
2022-10-18T04:59:40.408Z,23
2022-10-18T05:00:42.084Z,23
2022-10-18T05:01:44.132Z,23
2022-10-18T05:02:46.262Z,23
2022-10-18T05:03:47.919Z,22.9
2022-10-18T05:04:49.590Z,22.9
2022-10-18T05:06:02.923Z,22.9
2022-10-18T05:07:05.485Z,22.9
2022-10-18T05:08:07.184Z,22.9
2022-10-18T05:09:08.809Z,22.8
2022-10-18T05:10:10.508Z,22.8
2022-10-18T05:11:12.091Z,22.8
2022-10-18T05:12:13.686Z,22.8
2022-10-18T05:13:15.250Z,22.8
2022-10-18T05:14:19.617Z,22.8
2022-10-18T05:15:21.600Z,22.8
2022-10-18T05:16:23.417Z,22.8
2022-10-18T05:17:25.098Z,22.7
2022-10-18T05:18:26.711Z,22.7
2022-10-18T05:19:28.431Z,22.7
2022-10-18T05:20:30.136Z,22.7
2022-10-18T05:21:31.849Z,22.6
2022-10-18T05:22:34.120Z,22.6
2022-10-18T05:23:36.753Z,22.6
2022-10-18T05:24:38.313Z,22.6
2022-10-18T05:25:40.049Z,22.6
2022-10-18T05:26:41.636Z,22.5
2022-10-18T05:27:43.494Z,22.5
2022-10-18T05:28:45.395Z,22.4
2022-10-18T05:29:47.499Z,22.4
2022-10-18T05:30:49.318Z,22.4
2022-10-18T05:31:50.938Z,22.3
2022-10-18T05:32:52.847Z,22.3
2022-10-18T05:33:54.507Z,22.3
2022-10-18T05:34:56.107Z,22.3
2022-10-18T05:35:57.829Z,22.3
2022-10-18T05:36:59.404Z,22.2
2022-10-18T05:38:01.216Z,22.1
2022-10-18T05:39:05.316Z,22.1
2022-10-18T05:40:07.028Z,22
2022-10-18T05:41:08.680Z,22
2022-10-18T05:42:10.489Z,21.8
2022-10-18T05:43:12.167Z,22
2022-10-18T05:44:13.712Z,21.9
2022-10-18T05:45:15.345Z,22
2022-10-18T05:46:17.148Z,21.9
2022-10-18T05:47:18.787Z,21.9
2022-10-18T05:48:20.604Z,22
2022-10-18T05:49:22.210Z,22
2022-10-18T05:50:23.765Z,22
2022-10-18T05:51:25.436Z,22
2022-10-18T05:52:27.297Z,22
2022-10-18T05:53:38.179Z,22
2022-10-18T05:54:40.169Z,22
2022-10-18T05:55:41.866Z,21.9
2022-10-18T05:56:43.458Z,21.9
2022-10-18T05:57:45.440Z,21.9
2022-10-18T05:58:47.090Z,21.9
2022-10-18T05:59:48.735Z,21.9
2022-10-18T06:00:50.376Z,21.8
2022-10-18T06:01:52.238Z,21.7
2022-10-18T06:02:59.304Z,21.8
2022-10-18T06:04:02.481Z,21.8
2022-10-18T06:05:04.053Z,21.8
2022-10-18T06:06:05.655Z,21.6
2022-10-18T06:07:07.464Z,21.7
2022-10-18T06:08:11.893Z,21.7
2022-10-18T06:09:13.574Z,21.7
2022-10-18T06:10:15.204Z,21.6
2022-10-18T06:11:16.797Z,21.7
2022-10-18T06:12:18.365Z,21.6
2022-10-18T06:13:19.936Z,21.7
2022-10-18T06:14:21.593Z,21.7
2022-10-18T06:15:23.318Z,21.6
2022-10-18T06:16:32.541Z,21.4
2022-10-18T06:17:35.759Z,21.5
2022-10-18T06:18:38.413Z,21.5
2022-10-18T06:19:40.160Z,21.4
2022-10-18T06:20:41.914Z,21.5
2022-10-18T06:21:43.486Z,21.5
2022-10-18T06:22:45.041Z,21.5
2022-10-18T06:23:46.710Z,21.5
2022-10-18T06:24:48.266Z,21.5
2022-10-18T06:25:49.929Z,21.4
2022-10-18T06:26:51.577Z,21.3
2022-10-18T06:27:53.189Z,21.4
2022-10-18T06:28:54.973Z,21.4
2022-10-18T06:29:57.001Z,21.3
2022-10-18T06:30:58.711Z,21.3
2022-10-18T06:32:03.365Z,21.3
2022-10-18T06:33:05.203Z,21.4
2022-10-18T06:34:07.068Z,21.3
2022-10-18T06:35:08.938Z,21.3
2022-10-18T06:36:10.559Z,21.3
2022-10-18T06:37:12.330Z,21.4
2022-10-18T06:38:14.078Z,21.4
2022-10-18T06:39:15.688Z,21.3
2022-10-18T06:40:17.248Z,21.3
2022-10-18T06:41:18.875Z,21.3
2022-10-18T06:42:22.869Z,21.3
2022-10-18T06:43:24.414Z,21.3
2022-10-18T06:44:26.098Z,21.2
2022-10-18T06:45:27.657Z,21.3
2022-10-18T06:46:29.316Z,21.3
2022-10-18T06:47:31.022Z,21.2
2022-10-18T06:48:32.826Z,21.2
2022-10-18T06:49:34.741Z,21.1
2022-10-18T06:50:36.450Z,21.2
2022-10-18T06:51:38.354Z,21.3
2022-10-18T06:52:40.183Z,21.3
2022-10-18T06:53:59.543Z,21.3
2022-10-18T06:55:20.618Z,21.4
2022-10-18T06:56:22.256Z,21.3
2022-10-18T06:57:23.812Z,21.3
2022-10-18T06:58:25.682Z,21.3
2022-10-18T06:59:31.538Z,21.3
2022-10-18T07:00:33.482Z,21.4
2022-10-18T07:01:35.261Z,21.4
2022-10-18T07:02:37.268Z,21.3
2022-10-18T07:03:39.097Z,21.4
2022-10-18T07:04:40.775Z,21.4
2022-10-18T07:05:42.424Z,21.4
2022-10-18T07:06:44.033Z,21.5
2022-10-18T07:07:45.678Z,21.4
2022-10-18T07:08:47.430Z,21.4
2022-10-18T07:09:49.724Z,21.3
2022-10-18T07:10:51.365Z,21.3
2022-10-18T07:11:53.160Z,21.5
2022-10-18T07:13:31.846Z,21.3
2022-10-18T07:14:35.051Z,21.3
2022-10-18T07:15:36.864Z,21.3
2022-10-18T07:16:38.586Z,21.3
2022-10-18T07:17:40.343Z,21.3
2022-10-18T07:18:42.150Z,21.4
2022-10-18T07:19:43.815Z,21.3
2022-10-18T07:20:45.703Z,21.3
2022-10-18T07:21:47.448Z,21.4
2022-10-18T07:22:49.058Z,21.3
2022-10-18T07:23:50.697Z,21.3
2022-10-18T07:24:52.330Z,21.4
2022-10-18T07:25:54.030Z,21.4
2022-10-18T07:26:55.875Z,21.4
2022-10-18T07:27:57.436Z,21.3
2022-10-18T07:28:59.566Z,21.3
2022-10-18T07:30:01.633Z,21.4
2022-10-18T07:31:06.450Z,21.4
2022-10-18T07:32:08.095Z,21.4
2022-10-18T07:33:09.845Z,21.4
2022-10-18T07:34:11.703Z,21.4
2022-10-18T07:35:13.559Z,21.4
2022-10-18T07:36:15.292Z,21.4
2022-10-18T07:37:17.068Z,21.4
2022-10-18T07:38:18.898Z,21.5
2022-10-18T07:39:20.618Z,21.5
2022-10-18T07:40:22.344Z,21.5
2022-10-18T07:41:24.030Z,21.5
2022-10-18T07:42:25.742Z,21.5
2022-10-18T07:43:27.391Z,21.5
2022-10-18T07:44:29.381Z,21.5
2022-10-18T07:45:31.259Z,21.5
2022-10-18T07:46:33.278Z,21.5
2022-10-18T07:47:35.754Z,21.5
2022-10-18T07:48:38.441Z,21.5
2022-10-18T07:49:40.208Z,21.5
2022-10-18T07:50:41.917Z,21.5
2022-10-18T07:51:43.659Z,21.5
2022-10-18T07:52:45.450Z,21.5
2022-10-18T07:53:47.164Z,21.5
2022-10-18T07:55:51.478Z,21.5
2022-10-18T07:56:53.075Z,21.5
2022-10-18T07:57:54.774Z,21.5
2022-10-18T07:58:56.508Z,21.5
2022-10-18T07:59:58.066Z,21.6
2022-10-18T08:00:59.706Z,21.7
2022-10-18T08:02:01.660Z,21.7
2022-10-18T08:03:03.541Z,21.7
2022-10-18T08:04:10.639Z,21.8
2022-10-18T08:05:18.118Z,21.8
2022-10-18T08:06:19.711Z,21.8
2022-10-18T08:07:21.325Z,21.8
2022-10-18T08:08:22.953Z,21.7
2022-10-18T08:09:24.736Z,21.8
2022-10-18T08:10:26.394Z,21.9
2022-10-18T08:11:28.129Z,21.8
2022-10-18T08:12:29.677Z,21.8
2022-10-18T08:13:31.230Z,21.8
2022-10-18T08:14:32.962Z,21.8
2022-10-18T08:15:34.710Z,21.8
2022-10-18T08:16:36.319Z,21.8
2022-10-18T08:17:38.047Z,21.8
2022-10-18T08:18:39.601Z,21.8
2022-10-18T08:20:05.014Z,21.9
2022-10-18T08:21:32.915Z,21.8
2022-10-18T08:22:34.549Z,21.8
2022-10-18T08:23:36.368Z,21.7
2022-10-18T08:24:38.014Z,21.7
2022-10-18T08:25:39.808Z,21.7
2022-10-18T08:26:41.965Z,21.8
2022-10-18T08:27:43.769Z,21.8
2022-10-18T08:29:09.799Z,21.8
2022-10-18T08:30:28.386Z,21.7
2022-10-18T08:31:29.983Z,21.7
2022-10-18T08:32:32.208Z,21.7
2022-10-18T08:33:34.800Z,21.7
2022-10-18T08:34:36.579Z,21.7
2022-10-18T08:35:41.421Z,21.7
2022-10-18T08:36:43.349Z,21.7
2022-10-18T08:37:45.095Z,21.9
2022-10-18T08:38:46.947Z,22
2022-10-18T08:39:48.668Z,21.9
2022-10-18T08:40:50.445Z,21.9
2022-10-18T08:41:52.008Z,21.9
2022-10-18T08:42:53.740Z,21.9
2022-10-18T08:43:55.347Z,21.9
2022-10-18T08:44:57.124Z,21.9
2022-10-18T08:45:58.740Z,21.9
2022-10-18T08:47:00.345Z,22
2022-10-18T08:48:01.959Z,22
2022-10-18T08:49:03.983Z,22
2022-10-18T08:50:05.731Z,22
2022-10-18T08:51:07.457Z,22
2022-10-18T08:52:09.257Z,22.1
2022-10-18T08:53:11.007Z,21.9
2022-10-18T08:54:12.769Z,22
2022-10-18T08:55:14.354Z,22.2
2022-10-18T08:56:16.145Z,22.1
2022-10-18T08:57:17.875Z,22.3
2022-10-18T08:58:19.711Z,22.3
2022-10-18T08:59:25.757Z,22.3
2022-10-18T09:00:27.539Z,22.2
2022-10-18T09:01:31.977Z,22.3
2022-10-18T09:02:35.527Z,22.3
2022-10-18T09:03:37.895Z,22.2
2022-10-18T09:04:40.255Z,22.2
2022-10-18T09:05:42.628Z,22.2
2022-10-18T09:06:44.269Z,22.2
2022-10-18T09:07:46.062Z,22.2
2022-10-18T09:08:47.766Z,22.2
2022-10-18T09:09:49.412Z,22.3
2022-10-18T09:10:51.302Z,22.3
2022-10-18T09:11:55.763Z,22.3
2022-10-18T09:13:03.757Z,22.2
2022-10-18T09:14:05.382Z,22.3
2022-10-18T09:15:07.332Z,22.3
2022-10-18T09:16:08.948Z,22.3
2022-10-18T09:17:16.322Z,22.4
2022-10-18T09:18:18.112Z,22.4
2022-10-18T09:19:19.946Z,22.4
2022-10-18T09:20:21.749Z,22.4
2022-10-18T09:21:23.349Z,22.5
2022-10-18T09:22:24.946Z,22.6
2022-10-18T09:23:26.742Z,22.5
2022-10-18T09:24:28.417Z,22.4
2022-10-18T09:25:30.069Z,22.6
2022-10-18T09:26:31.721Z,22.5
2022-10-18T09:27:33.322Z,22.7
2022-10-18T09:28:35.155Z,22.6
2022-10-18T09:29:37.028Z,22.7
2022-10-18T09:30:38.658Z,22.5
2022-10-18T09:31:40.360Z,22.4
2022-10-18T09:32:42.069Z,22.4
2022-10-18T09:33:43.853Z,22.5
2022-10-18T09:34:45.593Z,22.5
2022-10-18T09:35:47.162Z,22.4
2022-10-18T09:36:48.777Z,22.4
2022-10-18T09:37:50.382Z,22.5
2022-10-18T09:38:52.271Z,22.5
2022-10-18T09:39:53.922Z,22.5
2022-10-18T09:40:55.664Z,22.5
2022-10-18T09:41:57.215Z,22.4
2022-10-18T09:42:58.823Z,22.3
2022-10-18T09:44:00.652Z,22.4
2022-10-18T09:45:02.256Z,22.4
2022-10-18T09:46:04.101Z,22.4
2022-10-18T09:47:05.824Z,22.4
2022-10-18T09:48:07.806Z,22.4
2022-10-18T09:49:16.230Z,22.4
2022-10-18T09:50:18.156Z,22.5
2022-10-18T09:51:19.867Z,22.7
2022-10-18T09:52:21.545Z,22.4
2022-10-18T09:53:23.292Z,22.5
2022-10-18T09:54:25.039Z,22.8
2022-10-18T09:55:26.892Z,23
2022-10-18T09:56:28.511Z,22.9
2022-10-18T09:57:31.121Z,22.8
2022-10-18T09:58:33.727Z,22.8
2022-10-18T09:59:35.418Z,22.7
2022-10-18T10:00:37.032Z,22.7
2022-10-18T10:01:38.723Z,22.7
2022-10-18T10:02:40.412Z,22.6
2022-10-18T10:03:42.511Z,22.3
2022-10-18T10:04:44.062Z,22.5
2022-10-18T10:05:45.767Z,22.7
2022-10-18T10:06:47.550Z,22.5
2022-10-18T10:07:49.153Z,22.4
2022-10-18T10:08:50.863Z,22.6
2022-10-18T10:09:52.635Z,22.6
2022-10-18T10:10:54.341Z,22.3
2022-10-18T10:11:56.081Z,22.4
2022-10-18T10:12:57.697Z,22.3
2022-10-18T10:13:59.477Z,22.4
2022-10-18T10:15:01.208Z,22.4
2022-10-18T10:16:02.946Z,22.5
2022-10-18T10:17:04.717Z,22.3
2022-10-18T10:18:06.621Z,22.4
2022-10-18T10:19:08.727Z,22.3
2022-10-18T10:20:10.584Z,22.3
2022-10-18T10:21:12.147Z,22.2
2022-10-18T10:22:13.881Z,22.1
2022-10-18T10:23:15.763Z,22.3
2022-10-18T10:24:17.665Z,22.3
2022-10-18T10:25:19.467Z,22.1
2022-10-18T10:26:21.266Z,22.3
2022-10-18T10:27:22.914Z,22.2
2022-10-18T10:28:24.696Z,22
2022-10-18T10:29:44.924Z,21.9
2022-10-18T10:30:47.099Z,21.6
2022-10-18T10:31:48.845Z,21.5
2022-10-18T10:32:50.493Z,21.8
2022-10-18T10:33:52.313Z,21.7
2022-10-18T10:34:53.993Z,21.7
2022-10-18T10:35:55.576Z,21.9
2022-10-18T10:36:57.299Z,21.8
2022-10-18T10:37:58.921Z,22
2022-10-18T10:39:00.772Z,21.7
2022-10-18T10:40:23.030Z,21.9
2022-10-18T10:42:35.402Z,21.9
2022-10-18T10:43:40.188Z,21.8
2022-10-18T10:44:42.219Z,21.9
2022-10-18T10:45:43.801Z,21.9
2022-10-18T10:46:45.656Z,22
2022-10-18T10:47:47.486Z,21.9
2022-10-18T10:48:49.180Z,22
2022-10-18T10:49:50.987Z,21.8
2022-10-18T10:50:55.505Z,21.9
2022-10-18T10:52:26.651Z,21.8
2022-10-18T10:53:38.347Z,21.9
2022-10-18T10:54:40.045Z,21.9
2022-10-18T10:55:41.645Z,21.9
2022-10-18T10:56:43.494Z,21.9
2022-10-18T10:57:45.151Z,22
2022-10-18T10:58:46.862Z,21.9
2022-10-18T10:59:48.627Z,21.9
2022-10-18T11:00:50.343Z,22
2022-10-18T11:01:52.012Z,21.8
2022-10-18T11:03:17.291Z,22
2022-10-18T11:04:31.764Z,21.9
2022-10-18T11:05:33.316Z,21.9
2022-10-18T11:06:35.106Z,21.9
2022-10-18T11:07:36.872Z,21.9
2022-10-18T11:08:38.838Z,21.8
2022-10-18T11:09:40.778Z,21.7
2022-10-18T11:10:42.421Z,21.5
2022-10-18T11:11:44.169Z,21.5
2022-10-18T11:12:45.951Z,20.7
2022-10-18T11:14:07.166Z,20.8
2022-10-18T11:15:28.673Z,20.5
2022-10-18T11:16:30.280Z,20.2
2022-10-18T11:17:32.026Z,19.9
2022-10-18T11:18:33.948Z,19.8
2022-10-18T11:19:35.761Z,19.8
2022-10-18T11:20:37.576Z,19.9
2022-10-18T11:21:39.361Z,19.9
2022-10-18T11:22:41.041Z,19.7
2022-10-18T11:23:42.793Z,19.2
2022-10-18T11:24:44.398Z,19.7
2022-10-18T11:25:45.976Z,19.7
2022-10-18T11:26:53.718Z,19.5
2022-10-18T11:27:55.991Z,19.3
2022-10-18T11:28:57.822Z,19.8
2022-10-18T11:29:59.688Z,19.7
2022-10-18T11:31:01.304Z,19.6
2022-10-18T11:32:03.043Z,19.6
2022-10-18T11:33:04.627Z,19.5
2022-10-18T11:34:10.695Z,19.5
2022-10-18T11:35:12.492Z,18.7
2022-10-18T11:36:14.392Z,18.5
2022-10-18T11:37:31.204Z,18.7
2022-10-18T11:38:40.158Z,18.9
2022-10-18T11:39:41.939Z,19
2022-10-18T11:40:43.498Z,19
2022-10-18T11:41:45.089Z,19.5
2022-10-18T11:42:46.762Z,18.4
2022-10-18T11:44:03.474Z,18.6
2022-10-18T11:45:05.730Z,18.9
2022-10-18T11:46:07.376Z,18.9
2022-10-18T11:47:09.014Z,18.9
2022-10-18T11:48:10.668Z,18.9
2022-10-18T11:49:12.245Z,18.8
2022-10-18T11:50:14.034Z,18.9
2022-10-18T11:51:15.807Z,18.6
2022-10-18T11:52:17.451Z,18.1
2022-10-18T11:53:19.015Z,18.2
2022-10-18T11:54:20.746Z,18.2
2022-10-18T11:55:22.549Z,17.9
2022-10-18T11:56:24.341Z,18.1
2022-10-18T11:57:26.194Z,17.6
2022-10-18T11:58:27.824Z,17.8
2022-10-18T11:59:29.584Z,17.9
2022-10-18T12:00:31.335Z,17.9
2022-10-18T12:01:33.282Z,17.8
2022-10-18T12:02:35.946Z,17.8
2022-10-18T12:03:38.622Z,18
2022-10-18T12:05:22.372Z,18.1
2022-10-18T12:06:26.617Z,18.1
2022-10-18T12:07:32.716Z,18
2022-10-18T12:08:34.326Z,17.9
2022-10-18T12:09:36.142Z,17.5
2022-10-18T12:11:05.389Z,17.5
2022-10-18T12:12:08.489Z,17
2022-10-18T12:13:10.262Z,17.4
2022-10-18T12:14:12.001Z,17.3
2022-10-18T12:15:13.822Z,17.3
2022-10-18T12:16:15.575Z,17.2
2022-10-18T12:17:49.998Z,17.2
2022-10-18T12:19:54.728Z,17.1
2022-10-18T12:20:56.560Z,17.1
2022-10-18T12:21:58.304Z,16.8
2022-10-18T12:22:59.950Z,17.1
2022-10-18T12:24:01.766Z,17.3
2022-10-18T12:25:03.550Z,17.1
2022-10-18T12:26:05.303Z,17.4
2022-10-18T12:27:07.009Z,17.5
2022-10-18T12:28:08.579Z,17.2
2022-10-18T12:29:10.298Z,16.1
2022-10-18T12:30:12.069Z,16.2
2022-10-18T12:31:14.036Z,16.1
2022-10-18T12:32:15.850Z,15.9
2022-10-18T12:33:28.932Z,15.7
2022-10-18T12:34:30.917Z,15.8
2022-10-18T12:35:32.481Z,15.6
2022-10-18T12:36:34.206Z,15.3
2022-10-18T12:37:36.600Z,15.3
2022-10-18T12:38:38.500Z,15.6
2022-10-18T12:40:21.253Z,15.7
2022-10-18T12:41:23.497Z,15.9
2022-10-18T12:42:25.282Z,15.8
2022-10-18T12:43:26.871Z,16.1
2022-10-18T12:44:28.527Z,16
2022-10-18T12:45:30.120Z,15.7
2022-10-18T12:47:36.687Z,15.6
2022-10-18T12:48:38.246Z,15.6
2022-10-18T12:49:44.652Z,15.6
2022-10-18T12:50:46.361Z,15.7
2022-10-18T12:51:48.028Z,15.7
2022-10-18T12:52:49.810Z,15.9
2022-10-18T12:53:51.424Z,15.8
2022-10-18T12:54:53.060Z,15.5
2022-10-18T12:55:54.646Z,15.9
2022-10-18T12:56:56.435Z,16
2022-10-18T12:57:58.370Z,16.2
2022-10-18T12:59:00.243Z,16.1
2022-10-18T13:00:01.915Z,16.1
2022-10-18T13:01:03.915Z,16.3
2022-10-18T13:02:06.054Z,16.1
2022-10-18T13:03:07.802Z,16.1
2022-10-18T13:04:09.359Z,16.1
2022-10-18T13:05:33.777Z,16.1
2022-10-18T13:06:57.428Z,16.3
2022-10-18T13:07:59.291Z,16.3
2022-10-18T13:09:01.234Z,16.3
2022-10-18T13:10:03.016Z,16.4
2022-10-18T13:11:04.787Z,16.6
2022-10-18T13:12:06.508Z,16.6
2022-10-18T13:13:39.533Z,16.7
2022-10-18T13:15:07.217Z,16.6
2022-10-18T13:16:29.116Z,16.8
2022-10-18T13:17:31.544Z,16.6
2022-10-18T13:18:34.012Z,16.7
2022-10-18T13:19:35.558Z,16.8
2022-10-18T13:20:37.179Z,16.7
2022-10-18T13:21:38.843Z,16.7
2022-10-18T13:22:40.508Z,16.9
2022-10-18T13:23:42.245Z,17
2022-10-18T13:24:43.957Z,17
2022-10-18T13:25:45.634Z,17
2022-10-18T13:26:58.244Z,17.1
2022-10-18T13:28:44.062Z,17.2
2022-10-18T13:29:45.966Z,17.3
2022-10-18T13:30:47.566Z,17.1
2022-10-18T13:31:49.539Z,17.2
2022-10-18T13:32:51.620Z,16.4
2022-10-18T13:33:53.265Z,16.2
2022-10-18T13:34:54.902Z,16.1
2022-10-18T13:35:56.555Z,15.9
2022-10-18T13:36:58.324Z,15.7
2022-10-18T13:38:00.051Z,16
2022-10-18T13:39:01.696Z,16
2022-10-18T13:40:03.352Z,16
2022-10-18T13:41:05.512Z,16
2022-10-18T13:42:07.127Z,15.7
2022-10-18T13:43:08.757Z,15.8
2022-10-18T13:44:10.317Z,15.5
2022-10-18T13:45:11.944Z,15.5
2022-10-18T13:46:13.624Z,15.5
2022-10-18T13:47:15.263Z,15.4
2022-10-18T13:48:17.121Z,15.1
2022-10-18T13:49:18.868Z,15.3
2022-10-18T13:50:20.673Z,15.3
2022-10-18T13:51:22.567Z,15.4
2022-10-18T13:52:24.280Z,15.5
2022-10-18T13:53:25.960Z,15.2
2022-10-18T13:54:27.810Z,15.1
2022-10-18T13:55:29.425Z,15.1
2022-10-18T13:56:31.205Z,15.3
2022-10-18T13:57:32.847Z,15.1
2022-10-18T13:58:34.459Z,15.1
2022-10-18T14:00:37.794Z,15.1
2022-10-18T14:01:42.880Z,15.1
2022-10-18T14:03:00.005Z,14.8
2022-10-18T14:04:02.895Z,14.7
2022-10-18T14:05:25.307Z,14.6
2022-10-18T14:06:27.650Z,14.4
2022-10-18T14:07:29.262Z,14.3
2022-10-18T14:08:31.107Z,14.2
2022-10-18T14:09:45.235Z,14.2
2022-10-18T14:11:03.443Z,13.7
2022-10-18T14:12:05.675Z,13.7